Time;durP1;ratioP1;P1;durP2;ratioP2;P2;SDS_P1;SDS_P2;PMS_P1;PMS_P2;Temp;Humidity;BMP_temperature;BMP_pressure;BME280_temperature;BME280_humidity;BME280_pressure;Samples;Min_cycle;Max_cycle;Signal;HPM_P1;HPM_P2
2022/09/01 00:00:29;;;;;;;9.48;8.70;;;;;;;17.61;88.71;98871.13;4961208;28;102795;-62
2022/09/01 00:02:58;;;;;;;10.45;9.65;;;;;;;17.71;87.27;98871.88;4966202;28;103295;-62
2022/09/01 00:05:26;;;;;;;14.63;13.23;;;;;;;17.31;88.07;98879.44;4963665;28;103256;-62
2022/09/01 00:07:57;;;;;;;15.70;14.40;;;;;;;16.82;92.89;98883.28;4952284;28;103161;-62
2022/09/01 00:10:27;;;;;;;15.18;13.88;;;;;;;16.97;92.93;98878.31;4965778;28;103789;-62
2022/09/01 00:12:55;;;;;;;15.17;13.83;;;;;;;16.72;94.07;98878.00;4963744;28;103261;-62
2022/09/01 00:15:23;;;;;;;16.17;14.82;;;;;;;16.54;95.59;98878.88;4964033;28;103019;-62
2022/09/01 00:17:54;;;;;;;16.17;14.65;;;;;;;16.83;94.06;98878.78;4969227;28;102818;-62
2022/09/01 00:20:27;;;;;;;16.48;15.07;;;;;;;16.87;93.36;98878.34;4963294;28;102923;-62
2022/09/01 00:22:55;;;;;;;17.90;16.40;;;;;;;16.44;95.98;98884.22;4963784;28;104862;-62
2022/09/01 00:25:23;;;;;;;17.00;15.50;;;;;;;16.47;95.31;98883.94;4964234;28;103197;-62
2022/09/01 00:27:51;;;;;;;18.40;16.70;;;;;;;16.05;98.83;98882.56;4947827;28;102686;-62
2022/09/01 00:30:21;;;;;;;18.67;16.95;;;;;;;15.92;100.00;98881.97;4946980;28;103903;-62
2022/09/01 00:32:49;;;;;;;17.52;16.00;;;;;;;16.09;100.00;98878.63;4948971;28;104033;-62
2022/09/01 00:35:19;;;;;;;17.95;16.25;;;;;;;16.08;99.95;98879.63;4963838;28;103208;-61
2022/09/01 00:37:48;;;;;;;14.70;13.48;;;;;;;16.55;98.23;98875.22;4948290;28;102751;-62
2022/09/01 00:40:18;;;;;;;13.10;12.00;;;;;;;16.91;94.05;98871.75;4968331;28;102826;-62
2022/09/01 00:42:47;;;;;;;14.27;13.02;;;;;;;17.01;91.98;98871.72;4962261;28;104156;-62
2022/09/01 00:45:15;;;;;;;13.80;12.70;;;;;;;16.77;93.34;98883.72;4964637;28;103770;-62
2022/09/01 00:47:44;;;;;;;14.88;13.60;;;;;;;16.49;94.43;98876.63;4947645;28;102814;-62
2022/09/01 00:50:17;;;;;;;17.20;15.70;;;;;;;15.98;98.97;98871.63;4967594;28;104071;-61
2022/09/01 00:52:49;;;;;;;17.92;16.23;;;;;;;15.76;100.00;98869.22;4944445;28;104177;-62
2022/09/01 00:55:23;;;;;;;18.55;16.95;;;;;;;15.55;100.00;98869.34;4968567;28;103260;-62
2022/09/01 00:57:51;;;;;;;16.90;15.48;;;;;;;15.86;100.00;98866.59;4967735;28;102584;-62
2022/09/01 01:00:23;;;;;;;16.35;14.85;;;;;;;16.10;99.66;98869.66;4965012;28;102794;-62
2022/09/01 01:02:55;;;;;;;16.42;15.00;;;;;;;16.11;98.07;98871.34;4967240;28;104080;-62
2022/09/01 01:05:26;;;;;;;16.08;14.57;;;;;;;16.24;97.39;98867.41;4970042;28;104160;-62
2022/09/01 01:07:55;;;;;;;15.18;13.77;;;;;;;16.34;96.15;98869.19;4968786;28;102842;-62
2022/09/01 01:10:32;;;;;;;17.13;15.48;;;;;;;15.85;99.26;98864.88;4969741;28;102735;-62
2022/09/01 01:13:01;;;;;;;16.55;15.02;;;;;;;15.90;98.94;98871.47;4948282;28;104512;-62
2022/09/01 01:15:29;;;;;;;15.90;14.60;;;;;;;16.12;98.28;98876.53;4950643;28;103225;-62
2022/09/01 01:17:57;;;;;;;15.90;14.60;;;;;;;16.02;98.70;98867.69;4950153;28;102952;-61
2022/09/01 01:23:22;;;;;;;14.13;12.82;;;;;;;16.41;94.89;98875.66;4968679;28;103209;-61
2022/09/01 01:25:56;;;;;;;15.95;14.52;;;;;;;16.08;96.54;98864.44;4966183;28;103201;-62
2022/09/01 01:28:29;;;;;;;14.02;12.75;;;;;;;16.30;95.75;98868.66;4971180;28;103066;-62
2022/09/01 01:31:00;;;;;;;14.55;13.15;;;;;;;16.19;96.28;98871.47;4948432;28;104182;-62
2022/09/01 01:33:32;;;;;;;13.88;12.60;;;;;;;16.38;95.95;98873.25;4967176;28;105093;-62
2022/09/01 01:36:02;;;;;;;14.63;13.27;;;;;;;16.36;95.22;98873.41;4956643;28;103596;-62
2022/09/01 01:38:34;;;;;;;14.50;13.20;;;;;;;16.08;97.72;98868.97;4942717;28;102823;-62
2022/09/01 01:41:05;;;;;;;15.17;13.80;;;;;;;15.91;97.36;98881.16;4950813;28;102922;-62
2022/09/01 01:43:36;;;;;;;14.60;13.30;;;;;;;15.96;98.27;98878.06;4968511;28;103250;-62
2022/09/01 01:46:06;;;;;;;15.13;13.82;;;;;;;15.88;99.47;98869.94;4966231;28;103243;-62
2022/09/01 01:48:40;;;;;;;14.52;13.32;;;;;;;15.83;98.53;98865.00;4953700;28;102991;-61
2022/09/01 01:51:12;;;;;;;15.00;13.70;;;;;;;15.84;98.98;98863.19;4951286;28;103917;-62
2022/09/01 01:53:40;;;;;;;13.82;12.63;;;;;;;15.90;99.28;98875.97;4949095;28;103127;-61
2022/09/01 01:56:13;;;;;;;15.75;14.35;;;;;;;15.65;99.85;98869.34;4945179;28;103185;-62
2022/09/01 01:58:41;;;;;;;15.07;13.77;;;;;;;15.81;99.01;98869.66;4949150;28;103121;-63
2022/09/01 02:01:11;;;;;;;14.38;13.00;;;;;;;16.01;96.91;98873.16;4963213;28;103171;-61
2022/09/01 02:03:40;;;;;;;14.13;12.82;;;;;;;15.97;97.11;98880.56;4952642;28;103987;-61
2022/09/01 02:06:11;;;;;;;13.80;12.50;;;;;;;16.29;94.39;98874.97;4963504;28;103175;-62
2022/09/01 02:08:41;;;;;;;12.10;11.20;;;;;;;16.44;92.60;98876.22;4948296;28;102869;-62
2022/09/01 02:11:09;;;;;;;13.23;12.13;;;;;;;16.34;93.29;98875.38;4949492;28;102844;-61
2022/09/01 02:13:39;;;;;;;11.98;10.80;;;;;;;16.44;92.65;98872.69;4951385;28;104233;-62
2022/09/01 02:16:11;;;;;;;15.68;14.25;;;;;;;15.61;97.46;98874.13;4967099;28;103328;-62
2022/09/01 02:18:43;;;;;;;14.27;12.88;;;;;;;15.76;97.16;98881.69;4948731;28;102723;-62
2022/09/01 02:21:12;;;;;;;14.98;13.65;;;;;;;15.64;98.10;98879.16;4948109;28;104131;-61
2022/09/01 02:23:47;;;;;;;14.90;13.43;;;;;;;15.91;96.46;98875.00;4966682;28;103265;-62
2022/09/01 02:26:17;;;;;;;14.63;13.23;;;;;;;15.92;96.63;98879.31;4949292;28;103186;-62
2022/09/01 02:28:50;;;;;;;14.70;13.38;;;;;;;15.86;97.14;98882.56;4949505;28;102760;-61
2022/09/01 02:31:26;;;;;;;15.20;13.80;;;;;;;15.74;96.71;98867.69;4965663;28;103850;-62
2022/09/01 02:33:56;;;;;;;13.55;12.25;;;;;;;15.92;95.01;98881.97;4964067;28;103258;-62
2022/09/01 02:36:25;;;;;;;12.10;11.10;;;;;;;16.31;92.69;98872.97;4948599;28;103226;-61
2022/09/01 02:38:54;;;;;;;13.25;12.02;;;;;;;16.28;92.86;98875.94;4949546;28;102610;-62
2022/09/01 02:41:26;;;;;;;13.48;12.23;;;;;;;16.28;92.93;98875.94;4966858;28;102989;-62
2022/09/01 02:43:56;;;;;;;10.57;9.68;;;;;;;16.54;91.61;98879.72;4964753;28;103429;-61
2022/09/01 02:46:28;;;;;;;12.82;11.63;;;;;;;16.56;90.05;98875.06;4962865;28;102952;-62
2022/09/01 02:48:58;;;;;;;11.90;10.90;;;;;;;16.59;89.29;98869.44;4948794;28;102790;-61
2022/09/01 02:51:26;;;;;;;14.60;13.27;;;;;;;16.13;92.91;98880.03;4950776;28;103315;-61
2022/09/01 02:53:54;;;;;;;14.15;12.95;;;;;;;15.97;93.13;98877.09;4950324;28;103279;-61
2022/09/01 02:56:26;;;;;;;15.00;13.68;;;;;;;15.88;94.86;98872.59;4949222;28;103286;-62
2022/09/01 02:58:56;;;;;;;15.35;14.02;;;;;;;15.60;95.76;98875.13;4947288;28;103182;-62
2022/09/01 03:01:28;;;;;;;14.97;13.70;;;;;;;15.68;95.53;98873.56;4947152;28;102970;-61
2022/09/01 03:04:00;;;;;;;14.43;13.23;;;;;;;15.33;97.50;98863.38;4964748;28;104409;-61
2022/09/01 03:06:32;;;;;;;15.40;14.10;;;;;;;15.51;98.14;98865.28;4955142;28;103157;-61
2022/09/01 03:09:03;;;;;;;15.55;14.15;;;;;;;15.55;95.49;98868.53;4948894;28;102872;-61
2022/09/01 03:11:35;;;;;;;14.93;13.63;;;;;;;15.86;94.24;98863.91;4964864;28;104825;-62
2022/09/01 03:14:06;;;;;;;14.63;13.43;;;;;;;15.75;95.71;98864.06;4949713;28;104167;-62
2022/09/01 03:16:37;;;;;;;16.83;15.13;;;;;;;15.33;97.64;98869.53;4964288;28;103528;-61
2022/09/01 03:19:08;;;;;;;18.88;17.17;;;;;;;14.90;100.00;98866.34;4967628;28;102870;-61
2022/09/01 03:21:42;;;;;;;21.40;19.38;;;;;;;14.68;100.00;98872.66;4950239;28;102872;-62
2022/09/01 03:24:14;;;;;;;20.10;18.17;;;;;;;14.93;100.00;98860.75;4952586;28;103423;-61
2022/09/01 03:26:43;;;;;;;20.92;18.85;;;;;;;14.83;100.00;98859.84;4947627;28;104487;-61
2022/09/01 03:29:14;;;;;;;19.52;17.83;;;;;;;15.10;100.00;98866.25;4946352;28;102807;-61
2022/09/01 03:31:42;;;;;;;19.30;17.55;;;;;;;14.94;100.00;98860.59;4963969;28;102662;-62
2022/09/01 03:34:11;;;;;;;19.97;18.23;;;;;;;14.87;100.00;98866.59;4949252;28;104565;-61
2022/09/01 03:36:49;;;;;;;20.93;19.07;;;;;;;14.87;100.00;98866.59;4949258;28;103574;-62
2022/09/01 03:39:24;;;;;;;21.15;19.25;;;;;;;14.69;100.00;98868.19;4965703;28;102910;-61
2022/09/01 03:41:54;;;;;;;21.27;19.27;;;;;;;14.54;100.00;98874.84;4967068;28;103976;-62
2022/09/01 03:44:23;;;;;;;22.42;20.40;;;;;;;14.41;100.00;98862.59;4945898;28;103347;-61
2022/09/01 03:46:51;;;;;;;22.33;20.23;;;;;;;14.40;100.00;98874.16;4943757;28;103394;-62
2022/09/01 03:49:26;;;;;;;21.38;19.48;;;;;;;14.61;100.00;98866.19;4948027;28;102778;-61
2022/09/01 03:51:57;;;;;;;19.35;17.65;;;;;;;14.89;100.00;98870.81;4946999;28;103148;-62
2022/09/01 03:54:29;;;;;;;13.32;12.23;;;;;;;15.43;100.00;98864.25;4948674;28;103728;-61
2022/09/01 03:56:59;;;;;;;17.58;15.98;;;;;;;15.48;95.82;98868.22;4948027;28;103299;-62
2022/09/01 03:59:30;;;;;;;11.70;10.70;;;;;;;15.92;95.01;98866.00;4965787;28;102660;-61
2022/09/01 04:01:59;;;;;;;10.97;10.00;;;;;;;16.09;92.88;98868.81;4948200;28;103016;-61
2022/09/01 04:04:30;;;;;;;13.63;12.45;;;;;;;16.09;91.19;98865.28;4946903;28;104998;-61
2022/09/01 04:07:01;;;;;;;11.65;10.75;;;;;;;16.11;91.23;98874.00;4961282;28;105127;-61
2022/09/01 04:09:32;;;;;;;10.10;9.30;;;;;;;16.30;89.97;98867.81;4964866;28;102753;-62
2022/09/01 04:12:00;;;;;;;13.65;12.55;;;;;;;16.23;88.98;98872.84;4966022;28;102820;-62
2022/09/01 04:14:31;;;;;;;14.77;13.57;;;;;;;15.74;90.46;98870.34;4952521;28;104332;-61
2022/09/01 04:19:57;;;;;;;13.25;12.15;;;;;;;15.80;92.48;98867.13;4941871;28;102823;-62
2022/09/01 04:22:30;;;;;;;16.65;15.25;;;;;;;15.57;91.62;98867.41;4961559;28;102792;-61
2022/09/01 04:24:59;;;;;;;16.08;14.68;;;;;;;15.46;92.94;98867.53;4960077;28;103497;-62
2022/09/01 04:27:27;;;;;;;18.20;16.60;;;;;;;14.77;98.31;98882.50;4947117;28;103307;-61
2022/09/01 04:29:57;;;;;;;17.85;16.25;;;;;;;14.71;99.73;98887.53;4967750;28;102878;-61
2022/09/01 04:32:29;;;;;;;20.73;18.88;;;;;;;14.47;100.00;98875.34;4964547;28;102791;-62
2022/09/01 04:35:01;;;;;;;20.48;18.67;;;;;;;14.20;100.00;98888.28;4951128;28;105589;-62
2022/09/01 04:37:29;;;;;;;20.63;18.63;;;;;;;14.20;100.00;98882.97;4966231;28;105505;-62
2022/09/01 04:40:00;;;;;;;18.50;16.90;;;;;;;14.63;100.00;98879.34;4949891;28;102725;-62
2022/09/01 04:42:31;;;;;;;20.33;18.52;;;;;;;14.44;100.00;98880.94;4966828;28;104164;-61
2022/09/01 04:45:06;;;;;;;17.50;16.10;;;;;;;15.02;100.00;98884.72;4952303;28;105137;-62
2022/09/01 04:47:40;;;;;;;18.95;17.25;;;;;;;14.75;100.00;98883.59;4966888;28;103164;-61
2022/09/01 04:50:15;;;;;;;19.13;17.50;;;;;;;14.87;100.00;98877.25;4965356;28;103088;-62
2022/09/01 04:52:59;;;;;;;21.30;19.40;;;;;;;14.63;100.00;98884.66;4968836;28;104030;-61
2022/09/01 04:55:30;;;;;;;21.00;19.08;;;;;;;14.46;100.00;98878.97;4967355;28;103971;-61
2022/09/01 04:58:03;;;;;;;19.85;18.13;;;;;;;14.74;100.00;98887.22;4953071;28;103257;-62
2022/09/01 05:00:39;;;;;;;19.73;17.92;;;;;;;14.86;100.00;98875.53;4948963;28;102621;-62
2022/09/01 05:03:09;;;;;;;18.53;16.77;;;;;;;15.00;100.00;98880.50;4951411;28;103112;-62
2022/09/01 05:06:13;;;;;;;18.17;16.65;;;;;;;15.10;99.82;98878.75;4966088;28;104479;-62
2022/09/01 05:08:47;;;;;;;20.40;18.40;;;;;;;14.93;100.00;98876.72;4945811;28;103895;-61
2022/09/01 05:11:27;;;;;;;20.67;18.67;;;;;;;14.86;100.00;98880.84;4943446;28;103262;-62
2022/09/01 05:14:04;;;;;;;19.55;17.73;;;;;;;15.05;100.00;98879.13;4941771;28;104074;-62
2022/09/01 05:16:34;;;;;;;21.87;19.83;;;;;;;14.89;100.00;98885.91;4944100;28;105474;-61
2022/09/01 05:19:04;;;;;;;21.00;19.00;;;;;;;15.06;100.00;98885.28;4959638;28;103337;-61
2022/09/01 05:21:39;;;;;;;19.35;17.45;;;;;;;15.20;99.59;98884.91;4949325;28;102759;-61
2022/09/01 05:24:07;;;;;;;20.07;18.27;;;;;;;15.23;99.15;98887.31;4958991;28;103354;-62
2022/09/01 05:26:37;;;;;;;20.10;18.30;;;;;;;15.06;100.00;98887.94;4942091;28;104622;-62
2022/09/01 05:29:09;;;;;;;21.73;19.57;;;;;;;14.85;100.00;98890.66;4928844;28;103394;-62
2022/09/01 05:31:43;;;;;;;22.37;20.37;;;;;;;15.06;100.00;98890.63;4942193;28;103029;-62
2022/09/01 05:34:14;;;;;;;16.08;14.77;;;;;;;15.77;99.66;98894.03;4964503;28;102915;-62
2022/09/01 05:36:44;;;;;;;19.73;18.00;;;;;;;15.58;97.99;98890.38;4943463;28;104123;-61
2022/09/01 05:39:13;;;;;;;18.13;16.50;;;;;;;15.81;98.91;98896.28;4953493;28;105158;-62
2022/09/01 05:41:42;;;;;;;20.00;18.25;;;;;;;15.66;97.82;98893.19;4958677;28;103068;-61
2022/09/01 05:44:12;;;;;;;20.97;18.97;;;;;;;15.28;100.00;98897.53;4961542;28;103048;-62
2022/09/01 05:46:43;;;;;;;20.23;18.33;;;;;;;15.48;100.00;98888.66;4959643;28;103320;-61
2022/09/01 05:49:15;;;;;;;20.25;18.48;;;;;;;15.48;100.00;98884.19;4966808;28;105065;-61
2022/09/01 05:51:50;;;;;;;20.50;18.63;;;;;;;15.58;99.07;98885.03;4951946;28;102733;-62
2022/09/01 05:54:26;;;;;;;18.52;17.02;;;;;;;15.85;97.71;98891.53;4965685;28;102730;-62
2022/09/01 05:56:57;;;;;;;18.98;17.38;;;;;;;16.12;95.78;98889.00;4950173;28;104568;-62
2022/09/01 05:59:52;;;;;;;19.42;17.52;;;;;;;16.25;95.71;98884.25;4965181;28;103163;-62
2022/09/01 06:02:24;;;;;;;21.40;19.50;;;;;;;15.72;98.59;98885.63;4949393;28;103136;-61
2022/09/01 06:04:56;;;;;;;21.60;19.63;;;;;;;15.79;99.10;98881.44;4964409;28;103819;-62
2022/09/01 06:07:29;;;;;;;21.17;19.17;;;;;;;16.19;98.05;98887.47;4964624;28;103847;-62
2022/09/01 06:10:00;;;;;;;17.77;16.20;;;;;;;16.55;96.00;98880.56;4950013;28;105137;-61
2022/09/01 06:12:29;;;;;;;16.33;14.93;;;;;;;16.95;93.29;98880.31;4952778;28;103234;-61
2022/09/01 06:14:57;;;;;;;20.83;18.83;;;;;;;16.47;93.86;98888.41;4951414;28;104050;-61
2022/09/01 06:17:29;;;;;;;20.80;18.80;;;;;;;16.54;96.29;98882.38;4965200;28;103642;-62
2022/09/01 06:20:09;;;;;;;14.90;13.60;;;;;;;17.19;93.12;98877.94;4946443;28;103260;-61
2022/09/01 06:22:41;;;;;;;16.48;15.07;;;;;;;17.58;90.49;98882.09;4950029;28;102804;-61
2022/09/01 06:25:10;;;;;;;13.48;12.38;;;;;;;17.90;87.76;98882.47;4965935;28;102800;-62
2022/09/01 06:27:43;;;;;;;14.80;13.55;;;;;;;17.99;86.54;98888.72;4963914;28;104319;-62
2022/09/01 06:30:15;;;;;;;16.15;14.85;;;;;;;17.78;86.38;98883.66;4947026;28;103261;-62
2022/09/01 06:32:56;;;;;;;17.45;15.77;;;;;;;17.84;84.40;98883.06;4950042;28;102675;-61
2022/09/01 06:35:28;;;;;;;21.60;19.40;;;;;;;16.90;89.80;98879.91;4946136;28;103059;-62
2022/09/01 06:37:58;;;;;;;18.63;17.03;;;;;;;17.20;92.09;98882.31;4949676;28;105141;-62
2022/09/01 06:41:00;;;;;;;18.58;16.88;;;;;;;18.04;87.79;98890.91;4964667;28;103280;-62
2022/09/01 06:43:29;;;;;;;19.08;17.38;;;;;;;18.26;85.47;98882.44;4947400;28;103002;-62
2022/09/01 06:46:01;;;;;;;21.40;19.50;;;;;;;17.41;87.98;98885.56;4965820;28;102826;-62
2022/09/01 06:48:31;;;;;;;17.05;15.65;;;;;;;18.14;86.81;98884.50;4949399;28;103346;-62
2022/09/01 06:51:08;;;;;;;19.60;17.85;;;;;;;18.25;85.10;98884.25;4967740;28;103257;-62
2022/09/01 06:53:55;;;;;;;15.85;14.40;;;;;;;18.53;85.11;98880.50;4947210;28;103121;-62
2022/09/01 06:56:30;;;;;;;19.30;17.53;;;;;;;18.56;84.37;98884.69;4943627;28;103185;-61
2022/09/01 06:59:03;;;;;;;13.02;11.93;;;;;;;18.98;82.97;98888.31;4945922;28;103103;-61
2022/09/01 07:01:31;;;;;;;18.17;16.48;;;;;;;18.91;81.65;98892.63;4946487;28;103885;-61
2022/09/01 07:04:01;;;;;;;14.98;13.63;;;;;;;19.15;80.99;98885.69;4951952;28;102772;-62
2022/09/01 07:06:50;;;;;;;15.45;14.18;;;;;;;19.63;80.00;98885.91;4946629;28;102807;-62
2022/09/01 07:09:30;;;;;;;17.65;16.05;;;;;;;19.66;78.73;98886.44;4965384;28;103221;-62
2022/09/01 07:12:23;;;;;;;21.30;19.40;;;;;;;18.60;83.60;98894.09;4945879;28;103321;-62
2022/09/01 07:14:54;;;;;;;21.23;19.25;;;;;;;18.38;85.58;98894.56;4946754;28;102742;-62
2022/09/01 07:17:42;;;;;;;18.73;17.13;;;;;;;19.19;81.96;98893.28;4965448;28;102964;-62
2022/09/01 07:20:14;;;;;;;20.00;18.20;;;;;;;18.57;83.01;98897.09;4966399;28;103074;-62
2022/09/01 07:22:59;;;;;;;16.48;15.07;;;;;;;19.36;82.77;98899.53;4948377;28;104224;-62
2022/09/01 07:25:37;;;;;;;18.43;16.67;;;;;;;19.79;78.32;98891.31;4961249;28;103039;-61
2022/09/01 07:28:40;;;;;;;19.90;18.05;;;;;;;19.09;82.17;98901.41;4964515;28;102768;-62
2022/09/01 07:31:19;;;;;;;19.92;18.13;;;;;;;18.80;83.09;98903.59;4944973;28;104244;-62
2022/09/01 07:34:11;;;;;;;18.20;16.52;;;;;;;20.03;79.14;98904.78;4932230;28;105015;-61
2022/09/01 07:37:04;;;;;;;18.13;16.42;;;;;;;19.75;79.49;98900.69;4930626;28;102979;-62
2022/09/01 07:39:52;;;;;;;17.30;15.75;;;;;;;19.99;78.75;98903.41;4936930;28;102774;-62
2022/09/01 07:43:07;;;;;;;14.35;13.10;;;;;;;21.33;75.31;98900.97;4956802;28;103245;-62
2022/09/01 07:46:11;;;;;;;15.32;14.00;;;;;;;21.52;72.54;98905.13;4939761;28;103367;-62
2022/09/01 07:49:01;;;;;;;15.70;14.20;;;;;;;22.16;70.20;98897.69;4941839;28;103534;-62
2022/09/01 07:51:53;;;;;;;14.27;12.98;;;;;;;22.61;68.38;98908.44;4943485;28;103327;-61
2022/09/01 07:54:24;;;;;;;14.68;13.25;;;;;;;21.84;71.29;98904.09;4957590;28;103717;-62
2022/09/01 07:56:54;;;;;;;16.00;14.27;;;;;;;20.74;72.60;98912.19;4959574;28;103254;-62
2022/09/01 07:59:25;;;;;;;14.03;12.63;;;;;;;21.06;73.01;98920.19;4931464;28;103376;-62
2022/09/01 08:02:04;;;;;;;15.60;14.10;;;;;;;21.29;73.08;98914.94;4942629;28;103768;-62
2022/09/01 08:04:32;;;;;;;14.50;12.77;;;;;;;22.01;70.71;98911.06;4943322;28;105477;-62
2022/09/01 08:07:01;;;;;;;12.48;11.35;;;;;;;22.39;69.64;98915.53;4966294;28;105661;-62
2022/09/01 08:09:31;;;;;;;13.38;12.07;;;;;;;20.75;70.72;98921.91;4949723;28;102849;-62
2022/09/01 08:12:08;;;;;;;13.10;11.77;;;;;;;20.14;75.89;98919.72;4944556;28;103183;-62
2022/09/01 08:14:55;;;;;;;12.67;11.37;;;;;;;20.58;73.69;98915.72;4961298;28;105111;-62
2022/09/01 08:17:45;;;;;;;11.32;10.32;;;;;;;21.30;71.49;98922.84;4946511;28;105517;-62
2022/09/01 08:20:23;;;;;;;13.00;11.80;;;;;;;21.13;71.90;98928.44;4944376;28;103042;-62
2022/09/01 08:22:55;;;;;;;13.25;11.95;;;;;;;20.66;73.00;98925.63;4944345;28;102727;-62
2022/09/01 08:25:33;;;;;;;12.80;11.73;;;;;;;20.97;71.74;98921.19;4963763;28;104030;-62
2022/09/01 08:28:02;;;;;;;11.90;10.90;;;;;;;20.91;72.68;98924.59;4964977;28;103441;-62
2022/09/01 08:30:31;;;;;;;12.52;11.43;;;;;;;20.40;74.08;98917.75;4941985;28;102961;-62
2022/09/01 08:33:01;;;;;;;11.50;10.50;;;;;;;21.68;70.31;98926.53;4964939;28;102833;-62
2022/09/01 08:35:48;;;;;;;11.65;10.65;;;;;;;22.42;66.74;98927.78;4944877;28;105069;-63
2022/09/01 08:38:18;;;;;;;11.33;10.33;;;;;;;20.86;71.97;98928.78;4946508;28;103228;-62
2022/09/01 08:40:53;;;;;;;9.00;8.25;;;;;;;21.89;68.36;98929.47;4964772;28;102795;-62
2022/09/01 08:43:45;;;;;;;7.90;7.30;;;;;;;22.40;66.53;98922.56;4950241;28;103205;-62
2022/09/01 08:46:19;;;;;;;9.93;9.10;;;;;;;22.24;66.23;98921.84;4959420;28;103285;-62
2022/09/01 08:48:54;;;;;;;10.85;9.75;;;;;;;21.06;70.24;98941.66;4953961;28;103390;-62
2022/09/01 08:52:23;;;;;;;8.27;7.57;;;;;;;21.03;69.50;98928.56;4946721;28;103926;-62
2022/09/01 08:54:58;;;;;;;7.70;7.07;;;;;;;22.25;65.96;98928.91;4950922;28;102751;-62
2022/09/01 08:57:33;;;;;;;7.07;6.47;;;;;;;22.77;63.56;98934.41;4947471;28;103301;-62
2022/09/01 09:00:23;;;;;;;7.30;6.60;;;;;;;21.93;62.86;98929.97;4966600;28;103198;-62
2022/09/01 09:03:04;;;;;;;6.97;6.05;;;;;;;22.25;63.02;98931.59;4945687;28;102723;-62
2022/09/01 09:05:49;;;;;;;5.20;4.80;;;;;;;22.65;61.49;98933.19;4964214;28;103153;-62
2022/09/01 09:08:44;;;;;;;4.60;4.30;;;;;;;22.83;60.37;98928.28;4964673;28;103284;-62
2022/09/01 09:11:26;;;;;;;4.75;4.30;;;;;;;22.39;60.75;98933.53;4963225;28;103245;-62
2022/09/01 09:14:06;;;;;;;4.97;4.57;;;;;;;22.77;60.68;98939.78;4963012;28;102795;-62
2022/09/01 09:16:39;;;;;;;4.27;3.97;;;;;;;23.26;59.38;98935.59;4958589;28;102859;-62
2022/09/01 09:19:11;;;;;;;4.38;4.07;;;;;;;23.54;58.78;98930.41;4950667;28;103465;-62
2022/09/01 09:21:40;;;;;;;6.60;6.05;;;;;;;22.52;61.07;98929.19;4960648;28;103189;-62
2022/09/01 09:24:13;;;;;;;6.88;6.18;;;;;;;22.01;64.29;98937.16;4967443;28;103323;-63
2022/09/01 09:26:49;;;;;;;6.40;5.80;;;;;;;21.95;64.81;98933.34;4937323;28;104149;-62
2022/09/01 09:29:20;;;;;;;6.00;5.50;;;;;;;22.36;62.81;98932.03;4952352;28;104167;-62
2022/09/01 09:32:10;;;;;;;5.10;4.70;;;;;;;22.92;61.51;98933.41;4955194;28;103500;-63
2022/09/01 09:35:18;;;;;;;5.32;4.93;;;;;;;22.94;60.65;98935.91;4879551;28;102984;-69
2022/09/01 09:37:47;;;;;;;5.57;5.07;;;;;;;23.11;60.76;98934.72;4884515;28;103066;-70
2022/09/01 09:40:21;;;;;;;5.70;5.20;;;;;;;23.16;60.49;98935.00;4884085;28;103485;-70
2022/09/01 09:43:05;;;;;;;6.30;5.80;;;;;;;22.87;61.49;98930.44;4874034;28;103210;-70
2022/09/01 09:45:37;;;;;;;5.75;5.35;;;;;;;22.82;61.98;98927.44;4900970;28;103278;-70
2022/09/01 09:48:25;;;;;;;5.93;5.43;;;;;;;23.02;60.00;98925.06;4911589;28;104873;-70
2022/09/01 09:50:53;;;;;;;5.57;5.03;;;;;;;23.13;61.53;98924.59;4912895;28;103389;-69
2022/09/01 09:53:28;;;;;;;5.53;5.03;;;;;;;23.36;60.29;98924.50;4949368;28;103400;-70
2022/09/01 09:56:04;;;;;;;6.00;5.50;;;;;;;22.83;60.86;98928.28;4953329;28;102801;-70
2022/09/01 09:58:37;;;;;;;5.07;4.68;;;;;;;23.49;58.83;98922.06;4969425;28;103066;-69
2022/09/01 10:01:14;;;;;;;5.70;5.30;;;;;;;22.43;61.08;98927.59;4944226;28;104573;-69
2022/09/01 10:03:49;;;;;;;5.70;5.20;;;;;;;22.90;60.87;98923.84;4959390;28;103284;-70
2022/09/01 10:06:31;;;;;;;5.78;5.18;;;;;;;22.98;59.52;98910.28;4965504;28;103104;-69
2022/09/01 10:09:00;;;;;;;5.20;4.67;;;;;;;23.80;57.54;98909.16;4960162;28;103107;-70
2022/09/01 10:11:33;;;;;;;5.32;4.82;;;;;;;24.04;57.91;98908.81;4961020;28;103935;-70
2022/09/01 10:14:06;;;;;;;5.53;5.03;;;;;;;23.59;57.76;98907.25;4951708;28;103475;-70
2022/09/01 10:16:41;;;;;;;5.30;4.80;;;;;;;23.77;57.58;98906.00;4956631;28;103309;-70
2022/09/01 10:19:13;;;;;;;5.07;4.68;;;;;;;24.17;57.69;98916.22;4956822;28;102703;-68
2022/09/01 10:21:45;;;;;;;5.05;4.50;;;;;;;23.83;57.64;98910.66;4958472;28;103280;-69
2022/09/01 10:24:19;;;;;;;5.03;4.53;;;;;;;23.80;57.25;98916.41;4944747;28;103553;-69
2022/09/01 10:26:57;;;;;;;4.93;4.53;;;;;;;23.76;57.28;98909.72;4958383;28;102675;-69
2022/09/01 10:29:28;;;;;;;4.60;4.22;;;;;;;24.10;55.48;98913.47;4959523;28;104022;-69
2022/09/01 10:32:08;;;;;;;4.13;3.83;;;;;;;24.38;54.66;98910.84;4960803;28;103144;-68
2022/09/01 10:34:57;;;;;;;4.30;4.00;;;;;;;24.46;54.55;98910.72;4931298;28;103211;-69
2022/09/01 10:37:27;;;;;;;4.70;4.30;;;;;;;24.48;54.14;98905.94;4954531;28;103020;-69
2022/09/01 10:40:15;;;;;;;4.70;4.07;;;;;;;24.96;54.16;98906.16;4955382;28;102771;-69
2022/09/01 10:42:52;;;;;;;4.82;4.30;;;;;;;25.24;54.35;98898.84;4959018;28;104063;-69
2022/09/01 10:45:32;;;;;;;4.82;4.38;;;;;;;24.49;54.30;98907.63;4945733;28;103626;-68
2022/09/01 10:48:26;;;;;;;4.10;3.70;;;;;;;24.67;53.83;98899.06;4962272;28;102856;-69
2022/09/01 10:51:42;;;;;;;4.00;3.70;;;;;;;24.84;55.33;98905.03;4944365;28;104187;-69
2022/09/01 10:54:56;;;;;;;4.03;3.72;;;;;;;24.92;53.53;98902.19;4963144;28;103429;-70
2022/09/01 10:57:36;;;;;;;3.88;3.58;;;;;;;25.40;52.45;98889.59;4967638;28;102971;-69
2022/09/01 11:01:00;;;;;;;4.07;3.67;;;;;;;25.11;52.82;98896.06;4965232;28;102772;-69
2022/09/01 11:03:52;;;;;;;3.93;3.63;;;;;;;25.55;51.68;98895.69;4964787;28;102681;-69
2022/09/01 11:07:07;;;;;;;3.85;3.55;;;;;;;25.97;49.91;98886.47;4963900;28;103271;-62
2022/09/01 11:09:41;;;;;;;3.72;3.42;;;;;;;26.30;51.17;98888.25;4954087;28;103339;-62
2022/09/01 11:12:47;;;;;;;4.03;3.65;;;;;;;26.84;49.10;98879.13;4950461;28;103009;-62
2022/09/01 11:15:37;;;;;;;4.00;3.70;;;;;;;26.38;49.83;98884.53;4887095;28;102862;-62
2022/09/01 11:18:12;;;;;;;3.80;3.40;;;;;;;26.66;49.93;98881.63;4966671;28;104200;-62
2022/09/01 11:20:49;;;;;;;4.10;3.80;;;;;;;26.56;50.04;98879.31;4965305;28;103190;-62
2022/09/01 11:23:24;;;;;;;3.95;3.65;;;;;;;26.65;49.01;98885.34;4964599;28;102907;-62
2022/09/01 11:25:56;;;;;;;3.60;3.30;;;;;;;27.67;47.29;98872.91;4963899;28;104026;-62
2022/09/01 11:28:44;;;;;;;4.10;3.45;;;;;;;26.39;48.31;98880.75;4959283;28;103406;-62
2022/09/01 11:31:26;;;;;;;3.78;3.47;;;;;;;26.55;48.81;98880.38;4961114;28;103179;-62
2022/09/01 11:34:17;;;;;;;3.80;3.50;;;;;;;27.76;46.78;98871.59;4961124;28;102985;-62
2022/09/01 11:36:52;;;;;;;3.63;3.33;;;;;;;27.38;47.15;98859.81;4967225;28;103204;-62
2022/09/01 11:39:41;;;;;;;4.60;3.20;;;;;;;27.04;46.83;98861.78;4961653;28;103536;-62
2022/09/01 11:42:18;;;;;;;3.67;3.30;;;;;;;26.93;46.62;98862.44;4958819;28;103942;-62
2022/09/01 11:44:51;;;;;;;3.37;3.07;;;;;;;26.54;47.17;98857.03;4966820;28;103195;-62
2022/09/01 11:47:25;;;;;;;3.00;2.80;;;;;;;27.47;45.90;98853.16;4945274;28;104286;-62
2022/09/01 11:49:57;;;;;;;2.90;2.70;;;;;;;27.69;45.77;98851.78;4961018;28;103272;-62
2022/09/01 11:52:31;;;;;;;3.55;3.25;;;;;;;27.23;45.90;98848.41;4946188;28;103209;-62
2022/09/01 11:55:02;;;;;;;3.47;3.20;;;;;;;27.31;45.54;98853.59;4966304;28;102890;-69